sensor_id;sensor_type;location;lat;lon;timestamp;temperature;humidity
78054;DHT22;67726;45.636;11.752;2023-05-14T00:00:18;13.50;88.10
78054;DHT22;67726;45.636;11.752;2023-05-14T00:02:44;13.50;88.30
78054;DHT22;67726;45.636;11.752;2023-05-14T00:05:09;13.40;88.00
78054;DHT22;67726;45.636;11.752;2023-05-14T00:07:35;13.40;88.20
78054;DHT22;67726;45.636;11.752;2023-05-14T00:10:01;13.40;88.10
78054;DHT22;67726;45.636;11.752;2023-05-14T00:12:26;13.40;88.10
78054;DHT22;67726;45.636;11.752;2023-05-14T00:14:52;13.50;88.10
78054;DHT22;67726;45.636;11.752;2023-05-14T00:17:18;13.50;88.20
78054;DHT22;67726;45.636;11.752;2023-05-14T00:19:44;13.50;88.20
78054;DHT22;67726;45.636;11.752;2023-05-14T00:22:10;13.50;88.20
78054;DHT22;67726;45.636;11.752;2023-05-14T00:24:35;13.50;88.10
78054;DHT22;67726;45.636;11.752;2023-05-14T00:27:02;13.60;87.80
78054;DHT22;67726;45.636;11.752;2023-05-14T00:29:28;13.60;88.20
78054;DHT22;67726;45.636;11.752;2023-05-14T00:31:54;13.60;88.10
78054;DHT22;67726;45.636;11.752;2023-05-14T00:34:19;13.70;88.00
78054;DHT22;67726;45.636;11.752;2023-05-14T00:36:45;13.70;88.10
78054;DHT22;67726;45.636;11.752;2023-05-14T00:39:11;13.70;88.20
78054;DHT22;67726;45.636;11.752;2023-05-14T00:41:37;13.80;88.20
78054;DHT22;67726;45.636;11.752;2023-05-14T00:44:03;13.70;88.30
78054;DHT22;67726;45.636;11.752;2023-05-14T00:46:29;13.80;88.30
78054;DHT22;67726;45.636;11.752;2023-05-14T00:48:54;13.80;88.20
78054;DHT22;67726;45.636;11.752;2023-05-14T00:51:20;13.80;88.10
78054;DHT22;67726;45.636;11.752;2023-05-14T00:53:46;13.80;88.10
78054;DHT22;67726;45.636;11.752;2023-05-14T00:56:13;13.80;88.10
78054;DHT22;67726;45.636;11.752;2023-05-14T00:58:40;13.90;88.20
78054;DHT22;67726;45.636;11.752;2023-05-14T01:01:06;13.80;88.00
78054;DHT22;67726;45.636;11.752;2023-05-14T01:03:31;13.80;88.40
78054;DHT22;67726;45.636;11.752;2023-05-14T01:06:48;13.80;88.10
78054;DHT22;67726;45.636;11.752;2023-05-14T01:09:01;13.80;88.30
78054;DHT22;67726;45.636;11.752;2023-05-14T01:14:23;13.80;88.10
78054;DHT22;67726;45.636;11.752;2023-05-14T01:16:54;13.80;88.00
78054;DHT22;67726;45.636;11.752;2023-05-14T01:19:41;13.90;88.10
78054;DHT22;67726;45.636;11.752;2023-05-14T01:22:08;13.80;88.10
78054;DHT22;67726;45.636;11.752;2023-05-14T01:24:34;13.80;88.10
78054;DHT22;67726;45.636;11.752;2023-05-14T01:27:56;13.80;87.90
78054;DHT22;67726;45.636;11.752;2023-05-14T01:32:30;13.80;87.90
78054;DHT22;67726;45.636;11.752;2023-05-14T01:34:59;13.70;87.90
78054;DHT22;67726;45.636;11.752;2023-05-14T01:37:26;13.70;88.20
78054;DHT22;67726;45.636;11.752;2023-05-14T01:39:55;13.70;88.10
78054;DHT22;67726;45.636;11.752;2023-05-14T01:42:21;13.60;88.10
78054;DHT22;67726;45.636;11.752;2023-05-14T01:44:47;13.60;88.10
78054;DHT22;67726;45.636;11.752;2023-05-14T01:47:13;13.70;88.00
78054;DHT22;67726;45.636;11.752;2023-05-14T01:49:38;13.70;88.10
78054;DHT22;67726;45.636;11.752;2023-05-14T01:52:04;13.70;88.20
78054;DHT22;67726;45.636;11.752;2023-05-14T01:54:30;13.70;88.20
78054;DHT22;67726;45.636;11.752;2023-05-14T01:56:56;13.70;88.20
78054;DHT22;67726;45.636;11.752;2023-05-14T01:59:21;13.70;88.00
78054;DHT22;67726;45.636;11.752;2023-05-14T02:01:47;13.80;88.20
78054;DHT22;67726;45.636;11.752;2023-05-14T02:04:12;13.70;87.50
78054;DHT22;67726;45.636;11.752;2023-05-14T02:06:38;13.80;88.10
78054;DHT22;67726;45.636;11.752;2023-05-14T02:09:04;13.80;88.20
78054;DHT22;67726;45.636;11.752;2023-05-14T02:11:29;13.80;88.20
78054;DHT22;67726;45.636;11.752;2023-05-14T02:13:55;13.80;87.90
78054;DHT22;67726;45.636;11.752;2023-05-14T02:16:21;13.80;88.10
78054;DHT22;67726;45.636;11.752;2023-05-14T02:18:46;13.90;88.10
78054;DHT22;67726;45.636;11.752;2023-05-14T02:21:12;13.80;87.80
78054;DHT22;67726;45.636;11.752;2023-05-14T02:23:38;13.80;88.00
78054;DHT22;67726;45.636;11.752;2023-05-14T02:26:03;13.90;88.10
78054;DHT22;67726;45.636;11.752;2023-05-14T02:28:29;13.90;87.90
78054;DHT22;67726;45.636;11.752;2023-05-14T02:30:58;13.90;88.00
78054;DHT22;67726;45.636;11.752;2023-05-14T02:33:27;13.90;87.90
78054;DHT22;67726;45.636;11.752;2023-05-14T02:35:53;13.80;88.10
78054;DHT22;67726;45.636;11.752;2023-05-14T02:38:19;13.90;88.00
78054;DHT22;67726;45.636;11.752;2023-05-14T02:40:45;13.90;88.20
78054;DHT22;67726;45.636;11.752;2023-05-14T02:43:10;13.90;87.90
78054;DHT22;67726;45.636;11.752;2023-05-14T02:45:36;13.90;87.80
78054;DHT22;67726;45.636;11.752;2023-05-14T02:48:01;13.80;88.10
78054;DHT22;67726;45.636;11.752;2023-05-14T02:50:27;13.80;88.20
78054;DHT22;67726;45.636;11.752;2023-05-14T02:52:53;13.80;88.30
78054;DHT22;67726;45.636;11.752;2023-05-14T02:55:18;13.80;88.00
78054;DHT22;67726;45.636;11.752;2023-05-14T02:57:44;13.80;88.20
78054;DHT22;67726;45.636;11.752;2023-05-14T03:00:11;13.90;88.30
78054;DHT22;67726;45.636;11.752;2023-05-14T03:02:36;13.80;88.10
78054;DHT22;67726;45.636;11.752;2023-05-14T03:05:02;13.80;88.00
78054;DHT22;67726;45.636;11.752;2023-05-14T03:07:28;13.80;88.20
78054;DHT22;67726;45.636;11.752;2023-05-14T03:09:54;13.80;88.40
78054;DHT22;67726;45.636;11.752;2023-05-14T03:12:19;13.80;88.10
78054;DHT22;67726;45.636;11.752;2023-05-14T03:14:45;13.80;88.10
78054;DHT22;67726;45.636;11.752;2023-05-14T03:17:11;13.80;88.30
78054;DHT22;67726;45.636;11.752;2023-05-14T03:19:36;13.90;88.30
78054;DHT22;67726;45.636;11.752;2023-05-14T03:22:02;13.90;88.20
78054;DHT22;67726;45.636;11.752;2023-05-14T03:24:28;13.90;88.20
78054;DHT22;67726;45.636;11.752;2023-05-14T03:26:53;13.90;88.30
78054;DHT22;67726;45.636;11.752;2023-05-14T03:29:19;13.90;88.30
78054;DHT22;67726;45.636;11.752;2023-05-14T03:31:45;13.80;88.20
78054;DHT22;67726;45.636;11.752;2023-05-14T03:34:10;13.90;88.40
78054;DHT22;67726;45.636;11.752;2023-05-14T03:36:37;13.90;88.50
78054;DHT22;67726;45.636;11.752;2023-05-14T03:39:04;13.90;88.50
78054;DHT22;67726;45.636;11.752;2023-05-14T03:41:31;14.00;88.30
78054;DHT22;67726;45.636;11.752;2023-05-14T03:43:57;14.00;88.50
78054;DHT22;67726;45.636;11.752;2023-05-14T03:46:23;13.90;88.40
78054;DHT22;67726;45.636;11.752;2023-05-14T03:48:48;14.00;88.30
78054;DHT22;67726;45.636;11.752;2023-05-14T03:51:14;14.00;88.30
78054;DHT22;67726;45.636;11.752;2023-05-14T03:53:40;14.00;88.40
78054;DHT22;67726;45.636;11.752;2023-05-14T03:56:06;14.00;88.50
78054;DHT22;67726;45.636;11.752;2023-05-14T03:58:32;14.00;88.20
78054;DHT22;67726;45.636;11.752;2023-05-14T04:00:57;14.00;88.60
78054;DHT22;67726;45.636;11.752;2023-05-14T04:03:23;14.00;88.60
78054;DHT22;67726;45.636;11.752;2023-05-14T04:05:49;14.00;88.60
78054;DHT22;67726;45.636;11.752;2023-05-14T04:08:15;14.00;88.30
78054;DHT22;67726;45.636;11.752;2023-05-14T04:10:41;14.00;88.70
78054;DHT22;67726;45.636;11.752;2023-05-14T04:13:07;14.20;88.10
78054;DHT22;67726;45.636;11.752;2023-05-14T04:15:33;14.10;88.50
78054;DHT22;67726;45.636;11.752;2023-05-14T04:18:00;14.20;88.80
78054;DHT22;67726;45.636;11.752;2023-05-14T04:20:26;14.20;88.00
78054;DHT22;67726;45.636;11.752;2023-05-14T04:22:52;14.30;88.60
78054;DHT22;67726;45.636;11.752;2023-05-14T04:25:18;14.40;88.60
78054;DHT22;67726;45.636;11.752;2023-05-14T04:27:44;14.50;88.60
78054;DHT22;67726;45.636;11.752;2023-05-14T04:30:10;14.50;88.60
78054;DHT22;67726;45.636;11.752;2023-05-14T04:32:36;14.50;88.70
78054;DHT22;67726;45.636;11.752;2023-05-14T04:35:03;14.60;88.40
78054;DHT22;67726;45.636;11.752;2023-05-14T04:37:29;14.50;86.70
78054;DHT22;67726;45.636;11.752;2023-05-14T04:39:55;14.60;86.60
78054;DHT22;67726;45.636;11.752;2023-05-14T04:42:21;14.60;85.50
78054;DHT22;67726;45.636;11.752;2023-05-14T04:44:46;14.70;88.20
78054;DHT22;67726;45.636;11.752;2023-05-14T04:47:12;14.70;88.00
78054;DHT22;67726;45.636;11.752;2023-05-14T04:49:38;14.80;88.60
78054;DHT22;67726;45.636;11.752;2023-05-14T04:52:05;14.90;88.90
78054;DHT22;67726;45.636;11.752;2023-05-14T04:54:31;15.10;89.20
78054;DHT22;67726;45.636;11.752;2023-05-14T04:56:56;15.10;89.20
78054;DHT22;67726;45.636;11.752;2023-05-14T04:59:22;15.20;89.80
78054;DHT22;67726;45.636;11.752;2023-05-14T05:01:47;15.30;89.80
78054;DHT22;67726;45.636;11.752;2023-05-14T05:04:13;15.20;86.80
78054;DHT22;67726;45.636;11.752;2023-05-14T05:06:39;15.30;87.00
78054;DHT22;67726;45.636;11.752;2023-05-14T05:09:04;15.40;88.80
78054;DHT22;67726;45.636;11.752;2023-05-14T05:11:30;15.50;88.00
78054;DHT22;67726;45.636;11.752;2023-05-14T05:13:55;15.50;86.80
78054;DHT22;67726;45.636;11.752;2023-05-14T05:16:21;15.60;85.80
78054;DHT22;67726;45.636;11.752;2023-05-14T05:18:47;15.50;82.20
78054;DHT22;67726;45.636;11.752;2023-05-14T05:21:12;15.60;86.70
78054;DHT22;67726;45.636;11.752;2023-05-14T05:23:38;15.60;87.30
78054;DHT22;67726;45.636;11.752;2023-05-14T05:26:04;15.60;87.30
78054;DHT22;67726;45.636;11.752;2023-05-14T05:28:29;15.60;87.30
78054;DHT22;67726;45.636;11.752;2023-05-14T05:30:55;15.60;87.70
78054;DHT22;67726;45.636;11.752;2023-05-14T05:33:20;15.60;87.30
78054;DHT22;67726;45.636;11.752;2023-05-14T05:35:46;15.70;87.80
78054;DHT22;67726;45.636;11.752;2023-05-14T05:38:13;15.60;86.70
78054;DHT22;67726;45.636;11.752;2023-05-14T05:40:40;15.60;86.90
78054;DHT22;67726;45.636;11.752;2023-05-14T05:43:05;15.60;85.50
78054;DHT22;67726;45.636;11.752;2023-05-14T05:45:31;15.60;87.10
78054;DHT22;67726;45.636;11.752;2023-05-14T05:47:57;15.60;87.30
78054;DHT22;67726;45.636;11.752;2023-05-14T05:50:23;15.70;87.50
78054;DHT22;67726;45.636;11.752;2023-05-14T05:52:48;15.60;87.90
78054;DHT22;67726;45.636;11.752;2023-05-14T05:55:14;15.80;87.40
78054;DHT22;67726;45.636;11.752;2023-05-14T05:57:40;15.80;87.40
78054;DHT22;67726;45.636;11.752;2023-05-14T06:00:06;15.80;87.80
78054;DHT22;67726;45.636;11.752;2023-05-14T06:02:37;15.90;86.80
78054;DHT22;67726;45.636;11.752;2023-05-14T06:05:04;15.90;86.00
78054;DHT22;67726;45.636;11.752;2023-05-14T06:07:30;16.00;86.50
78054;DHT22;67726;45.636;11.752;2023-05-14T06:09:55;16.00;86.90
78054;DHT22;67726;45.636;11.752;2023-05-14T06:12:21;16.10;86.40
78054;DHT22;67726;45.636;11.752;2023-05-14T06:14:46;16.10;86.70
78054;DHT22;67726;45.636;11.752;2023-05-14T06:17:12;16.10;85.60
78054;DHT22;67726;45.636;11.752;2023-05-14T06:19:38;16.20;85.00
78054;DHT22;67726;45.636;11.752;2023-05-14T06:22:03;16.30;86.50
78054;DHT22;67726;45.636;11.752;2023-05-14T06:24:29;16.40;86.10
78054;DHT22;67726;45.636;11.752;2023-05-14T06:26:55;16.30;82.30
78054;DHT22;67726;45.636;11.752;2023-05-14T06:29:21;16.40;84.20
78054;DHT22;67726;45.636;11.752;2023-05-14T06:31:47;16.40;84.30
78054;DHT22;67726;45.636;11.752;2023-05-14T06:34:12;16.50;85.20
78054;DHT22;67726;45.636;11.752;2023-05-14T06:36:38;16.50;85.00
78054;DHT22;67726;45.636;11.752;2023-05-14T06:39:04;16.60;83.70
78054;DHT22;67726;45.636;11.752;2023-05-14T06:41:30;16.70;84.00
78054;DHT22;67726;45.636;11.752;2023-05-14T06:43:56;16.70;85.00
78054;DHT22;67726;45.636;11.752;2023-05-14T06:46:22;16.70;84.50
78054;DHT22;67726;45.636;11.752;2023-05-14T06:48:48;16.70;83.50
78054;DHT22;67726;45.636;11.752;2023-05-14T06:51:13;16.80;84.60
78054;DHT22;67726;45.636;11.752;2023-05-14T06:53:39;16.80;85.20
78054;DHT22;67726;45.636;11.752;2023-05-14T06:56:05;16.70;84.40
78054;DHT22;67726;45.636;11.752;2023-05-14T06:58:31;16.70;84.30
78054;DHT22;67726;45.636;11.752;2023-05-14T07:00:57;16.70;82.60
78054;DHT22;67726;45.636;11.752;2023-05-14T07:03:23;16.60;79.90
78054;DHT22;67726;45.636;11.752;2023-05-14T07:05:48;16.50;83.80
78054;DHT22;67726;45.636;11.752;2023-05-14T07:08:14;16.40;84.90
78054;DHT22;67726;45.636;11.752;2023-05-14T07:10:40;16.30;84.00
78054;DHT22;67726;45.636;11.752;2023-05-14T07:13:07;16.20;83.80
78054;DHT22;67726;45.636;11.752;2023-05-14T07:15:32;16.10;84.90
78054;DHT22;67726;45.636;11.752;2023-05-14T07:17:58;16.00;85.20
78054;DHT22;67726;45.636;11.752;2023-05-14T07:20:24;16.00;85.70
78054;DHT22;67726;45.636;11.752;2023-05-14T07:22:51;16.00;85.70
78054;DHT22;67726;45.636;11.752;2023-05-14T07:25:17;15.90;85.70
78054;DHT22;67726;45.636;11.752;2023-05-14T07:27:42;15.80;85.40
78054;DHT22;67726;45.636;11.752;2023-05-14T07:30:08;15.80;85.70
78054;DHT22;67726;45.636;11.752;2023-05-14T07:32:34;15.80;85.10
78054;DHT22;67726;45.636;11.752;2023-05-14T07:35:00;15.90;86.40
78054;DHT22;67726;45.636;11.752;2023-05-14T07:37:25;15.90;86.50
78054;DHT22;67726;45.636;11.752;2023-05-14T07:39:52;15.90;86.60
78054;DHT22;67726;45.636;11.752;2023-05-14T07:42:18;16.00;86.80
78054;DHT22;67726;45.636;11.752;2023-05-14T07:44:43;16.00;87.00
78054;DHT22;67726;45.636;11.752;2023-05-14T07:47:09;16.00;86.70
78054;DHT22;67726;45.636;11.752;2023-05-14T07:49:35;15.90;86.00
78054;DHT22;67726;45.636;11.752;2023-05-14T07:52:01;15.70;84.10
78054;DHT22;67726;45.636;11.752;2023-05-14T07:54:26;15.60;84.00
78054;DHT22;67726;45.636;11.752;2023-05-14T07:56:52;15.60;85.40
78054;DHT22;67726;45.636;11.752;2023-05-14T07:59:18;15.60;85.90
78054;DHT22;67726;45.636;11.752;2023-05-14T08:01:43;15.60;85.90
78054;DHT22;67726;45.636;11.752;2023-05-14T08:04:09;15.50;83.90
78054;DHT22;67726;45.636;11.752;2023-05-14T08:06:39;15.50;85.30
78054;DHT22;67726;45.636;11.752;2023-05-14T08:09:05;15.50;85.00
78054;DHT22;67726;45.636;11.752;2023-05-14T08:11:31;15.40;84.30
78054;DHT22;67726;45.636;11.752;2023-05-14T08:13:56;15.40;85.60
78054;DHT22;67726;45.636;11.752;2023-05-14T08:16:22;15.60;85.80
78054;DHT22;67726;45.636;11.752;2023-05-14T08:18:49;15.60;85.80
78054;DHT22;67726;45.636;11.752;2023-05-14T08:21:14;15.60;85.40
78054;DHT22;67726;45.636;11.752;2023-05-14T08:23:40;15.70;85.30
78054;DHT22;67726;45.636;11.752;2023-05-14T08:26:06;15.70;84.80
78054;DHT22;67726;45.636;11.752;2023-05-14T08:28:31;15.60;83.50
78054;DHT22;67726;45.636;11.752;2023-05-14T08:30:57;15.60;84.20
78054;DHT22;67726;45.636;11.752;2023-05-14T08:33:22;15.60;84.50
78054;DHT22;67726;45.636;11.752;2023-05-14T08:35:52;15.60;84.80
78054;DHT22;67726;45.636;11.752;2023-05-14T08:38:18;15.60;84.50
78054;DHT22;67726;45.636;11.752;2023-05-14T08:40:48;15.70;85.50
78054;DHT22;67726;45.636;11.752;2023-05-14T08:43:20;15.60;83.90
78054;DHT22;67726;45.636;11.752;2023-05-14T08:45:53;15.60;84.00
78054;DHT22;67726;45.636;11.752;2023-05-14T08:48:21;15.60;84.20
78054;DHT22;67726;45.636;11.752;2023-05-14T08:50:50;15.80;84.90
78054;DHT22;67726;45.636;11.752;2023-05-14T08:53:16;15.80;84.50
78054;DHT22;67726;45.636;11.752;2023-05-14T08:55:42;15.80;84.10
78054;DHT22;67726;45.636;11.752;2023-05-14T08:58:08;15.80;83.60
78054;DHT22;67726;45.636;11.752;2023-05-14T09:00:34;15.90;83.70
78054;DHT22;67726;45.636;11.752;2023-05-14T09:03:00;15.90;82.80
78054;DHT22;67726;45.636;11.752;2023-05-14T09:05:27;15.90;83.80
78054;DHT22;67726;45.636;11.752;2023-05-14T09:07:52;15.80;82.50
78054;DHT22;67726;45.636;11.752;2023-05-14T09:10:18;15.80;82.90
78054;DHT22;67726;45.636;11.752;2023-05-14T09:12:45;15.90;83.70
78054;DHT22;67726;45.636;11.752;2023-05-14T09:15:10;15.90;83.90
78054;DHT22;67726;45.636;11.752;2023-05-14T09:17:36;15.80;84.00
78054;DHT22;67726;45.636;11.752;2023-05-14T09:20:02;15.90;83.10
78054;DHT22;67726;45.636;11.752;2023-05-14T09:22:29;15.80;83.60
78054;DHT22;67726;45.636;11.752;2023-05-14T09:25:03;15.90;83.80
78054;DHT22;67726;45.636;11.752;2023-05-14T09:27:30;15.90;83.00
78054;DHT22;67726;45.636;11.752;2023-05-14T09:30:07;15.90;83.40
78054;DHT22;67726;45.636;11.752;2023-05-14T09:32:37;15.80;82.90
78054;DHT22;67726;45.636;11.752;2023-05-14T09:35:20;15.80;84.00
78054;DHT22;67726;45.636;11.752;2023-05-14T09:37:48;15.90;83.90
78054;DHT22;67726;45.636;11.752;2023-05-14T09:40:15;15.90;84.20
78054;DHT22;67726;45.636;11.752;2023-05-14T09:42:41;15.90;83.40
78054;DHT22;67726;45.636;11.752;2023-05-14T09:45:08;15.90;83.60
78054;DHT22;67726;45.636;11.752;2023-05-14T09:47:34;16.00;83.50
78054;DHT22;67726;45.636;11.752;2023-05-14T09:50:00;16.00;84.00
78054;DHT22;67726;45.636;11.752;2023-05-14T09:52:26;16.00;84.40
78054;DHT22;67726;45.636;11.752;2023-05-14T09:54:52;16.10;84.60
78054;DHT22;67726;45.636;11.752;2023-05-14T09:57:18;16.20;85.60
78054;DHT22;67726;45.636;11.752;2023-05-14T09:59:44;16.30;84.00
78054;DHT22;67726;45.636;11.752;2023-05-14T10:02:29;16.30;85.00
78054;DHT22;67726;45.636;11.752;2023-05-14T10:05:03;16.30;84.10
78054;DHT22;67726;45.636;11.752;2023-05-14T10:07:38;16.30;82.70
78054;DHT22;67726;45.636;11.752;2023-05-14T10:10:07;16.20;84.20
78054;DHT22;67726;45.636;11.752;2023-05-14T10:12:38;16.20;82.70
78054;DHT22;67726;45.636;11.752;2023-05-14T10:15:12;16.10;82.10
78054;DHT22;67726;45.636;11.752;2023-05-14T10:17:43;16.20;82.80
78054;DHT22;67726;45.636;11.752;2023-05-14T10:20:11;16.20;84.80
78054;DHT22;67726;45.636;11.752;2023-05-14T10:22:39;16.20;83.40
78054;DHT22;67726;45.636;11.752;2023-05-14T10:25:06;16.10;84.40
78054;DHT22;67726;45.636;11.752;2023-05-14T10:27:32;16.20;84.20
78054;DHT22;67726;45.636;11.752;2023-05-14T10:29:58;16.10;84.50
78054;DHT22;67726;45.636;11.752;2023-05-14T10:32:25;16.00;84.90
78054;DHT22;67726;45.636;11.752;2023-05-14T10:34:52;16.20;84.00
78054;DHT22;67726;45.636;11.752;2023-05-14T10:37:25;16.30;84.60
78054;DHT22;67726;45.636;11.752;2023-05-14T10:39:58;16.90;84.70
78054;DHT22;67726;45.636;11.752;2023-05-14T10:42:30;17.60;84.20
78054;DHT22;67726;45.636;11.752;2023-05-14T10:45:01;18.10;85.20
78054;DHT22;67726;45.636;11.752;2023-05-14T10:47:34;18.30;82.30
78054;DHT22;67726;45.636;11.752;2023-05-14T10:50:03;18.40;80.60
78054;DHT22;67726;45.636;11.752;2023-05-14T10:52:29;18.50;82.00
78054;DHT22;67726;45.636;11.752;2023-05-14T10:54:59;18.40;80.00
78054;DHT22;67726;45.636;11.752;2023-05-14T10:57:27;18.60;82.00
78054;DHT22;67726;45.636;11.752;2023-05-14T10:59:58;19.20;81.00
78054;DHT22;67726;45.636;11.752;2023-05-14T11:02:32;19.90;79.00
78054;DHT22;67726;45.636;11.752;2023-05-14T11:05:02;19.80;77.00
78054;DHT22;67726;45.636;11.752;2023-05-14T11:07:30;19.30;73.30
78054;DHT22;67726;45.636;11.752;2023-05-14T11:10:02;19.10;78.60
78054;DHT22;67726;45.636;11.752;2023-05-14T11:12:28;19.30;78.00
78054;DHT22;67726;45.636;11.752;2023-05-14T11:14:58;19.20;79.30
78054;DHT22;67726;45.636;11.752;2023-05-14T11:17:25;19.10;77.90
78054;DHT22;67726;45.636;11.752;2023-05-14T11:19:51;19.40;77.80
78054;DHT22;67726;45.636;11.752;2023-05-14T11:22:17;19.70;79.50
78054;DHT22;67726;45.636;11.752;2023-05-14T11:24:42;19.80;77.90
78054;DHT22;67726;45.636;11.752;2023-05-14T11:27:08;20.00;78.60
78054;DHT22;67726;45.636;11.752;2023-05-14T11:29:36;20.10;75.90
78054;DHT22;67726;45.636;11.752;2023-05-14T11:32:05;20.30;73.50
78054;DHT22;67726;45.636;11.752;2023-05-14T11:34:32;20.50;81.10
78054;DHT22;67726;45.636;11.752;2023-05-14T11:37:04;20.60;80.60
78054;DHT22;67726;45.636;11.752;2023-05-14T11:39:31;20.70;77.00
78054;DHT22;67726;45.636;11.752;2023-05-14T11:42:04;20.70;72.10
78054;DHT22;67726;45.636;11.752;2023-05-14T11:44:33;20.80;77.40
78054;DHT22;67726;45.636;11.752;2023-05-14T11:46:59;20.70;74.90
78054;DHT22;67726;45.636;11.752;2023-05-14T11:49:29;20.80;80.10
78054;DHT22;67726;45.636;11.752;2023-05-14T11:52:00;20.80;75.10
78054;DHT22;67726;45.636;11.752;2023-05-14T11:54:29;20.90;78.40
78054;DHT22;67726;45.636;11.752;2023-05-14T11:56:56;21.00;74.40
78054;DHT22;67726;45.636;11.752;2023-05-14T11:59:32;21.00;77.30
78054;DHT22;67726;45.636;11.752;2023-05-14T12:01:58;20.90;76.80
78054;DHT22;67726;45.636;11.752;2023-05-14T12:04:24;21.00;77.60
78054;DHT22;67726;45.636;11.752;2023-05-14T12:06:51;21.10;77.40
78054;DHT22;67726;45.636;11.752;2023-05-14T12:09:20;21.20;78.00
78054;DHT22;67726;45.636;11.752;2023-05-14T12:11:48;21.40;78.40
78054;DHT22;67726;45.636;11.752;2023-05-14T12:14:22;21.50;76.80
78054;DHT22;67726;45.636;11.752;2023-05-14T12:16:49;21.60;76.40
78054;DHT22;67726;45.636;11.752;2023-05-14T12:19:17;21.50;68.00
78054;DHT22;67726;45.636;11.752;2023-05-14T12:21:44;21.10;74.70
78054;DHT22;67726;45.636;11.752;2023-05-14T12:24:12;21.10;75.80
78054;DHT22;67726;45.636;11.752;2023-05-14T12:26:38;20.90;64.40
78054;DHT22;67726;45.636;11.752;2023-05-14T12:29:05;20.70;72.80
78054;DHT22;67726;45.636;11.752;2023-05-14T12:31:34;20.90;76.50
78054;DHT22;67726;45.636;11.752;2023-05-14T12:34:01;20.90;68.40
78054;DHT22;67726;45.636;11.752;2023-05-14T12:36:28;20.90;77.80
78054;DHT22;67726;45.636;11.752;2023-05-14T12:38:59;20.90;76.30
78054;DHT22;67726;45.636;11.752;2023-05-14T12:41:29;21.00;77.00
78054;DHT22;67726;45.636;11.752;2023-05-14T12:43:55;21.10;75.40
78054;DHT22;67726;45.636;11.752;2023-05-14T12:46:21;21.20;60.90
78054;DHT22;67726;45.636;11.752;2023-05-14T12:48:47;21.20;61.50
78054;DHT22;67726;45.636;11.752;2023-05-14T12:51:13;21.10;61.50
78054;DHT22;67726;45.636;11.752;2023-05-14T12:53:38;21.20;75.50
78054;DHT22;67726;45.636;11.752;2023-05-14T12:56:05;21.30;79.00
78054;DHT22;67726;45.636;11.752;2023-05-14T12:58:30;21.20;74.00
78054;DHT22;67726;45.636;11.752;2023-05-14T13:00:56;21.20;76.80
78054;DHT22;67726;45.636;11.752;2023-05-14T13:03:22;21.20;74.00
78054;DHT22;67726;45.636;11.752;2023-05-14T13:05:48;21.20;71.90
78054;DHT22;67726;45.636;11.752;2023-05-14T13:08:13;21.40;77.10
78054;DHT22;67726;45.636;11.752;2023-05-14T13:10:42;21.30;62.40
78054;DHT22;67726;45.636;11.752;2023-05-14T13:13:08;21.30;76.50
78054;DHT22;67726;45.636;11.752;2023-05-14T13:15:36;21.40;73.60
78054;DHT22;67726;45.636;11.752;2023-05-14T13:18:02;21.60;70.90
78054;DHT22;67726;45.636;11.752;2023-05-14T13:20:27;21.40;61.80
78054;DHT22;67726;45.636;11.752;2023-05-14T13:22:55;21.20;63.50
78054;DHT22;67726;45.636;11.752;2023-05-14T13:25:21;21.30;74.50
78054;DHT22;67726;45.636;11.752;2023-05-14T13:27:47;21.30;67.90
78054;DHT22;67726;45.636;11.752;2023-05-14T13:30:19;20.80;62.30
78054;DHT22;67726;45.636;11.752;2023-05-14T13:32:45;21.00;72.20
78054;DHT22;67726;45.636;11.752;2023-05-14T13:35:11;21.40;74.80
78054;DHT22;67726;45.636;11.752;2023-05-14T13:37:37;21.50;61.10
78054;DHT22;67726;45.636;11.752;2023-05-14T13:40:03;21.70;73.50
78054;DHT22;67726;45.636;11.752;2023-05-14T13:42:31;21.80;60.80
78054;DHT22;67726;45.636;11.752;2023-05-14T13:44:58;21.80;74.60
78054;DHT22;67726;45.636;11.752;2023-05-14T13:47:24;21.60;61.50
78054;DHT22;67726;45.636;11.752;2023-05-14T13:49:51;21.60;56.70
78054;DHT22;67726;45.636;11.752;2023-05-14T13:52:17;21.90;76.10
78054;DHT22;67726;45.636;11.752;2023-05-14T13:54:43;22.00;61.10
78054;DHT22;67726;45.636;11.752;2023-05-14T13:57:08;21.60;70.10
78054;DHT22;67726;45.636;11.752;2023-05-14T13:59:34;21.60;73.30
78054;DHT22;67726;45.636;11.752;2023-05-14T14:02:00;21.70;69.30
78054;DHT22;67726;45.636;11.752;2023-05-14T14:04:26;21.60;60.90
78054;DHT22;67726;45.636;11.752;2023-05-14T14:06:54;21.70;58.20
78054;DHT22;67726;45.636;11.752;2023-05-14T14:09:19;21.90;63.90
78054;DHT22;67726;45.636;11.752;2023-05-14T14:11:46;22.00;65.70
78054;DHT22;67726;45.636;11.752;2023-05-14T14:14:11;22.40;74.90
78054;DHT22;67726;45.636;11.752;2023-05-14T14:16:37;22.60;75.30
78054;DHT22;67726;45.636;11.752;2023-05-14T14:19:03;22.90;77.40
78054;DHT22;67726;45.636;11.752;2023-05-14T14:21:29;23.00;76.80
78054;DHT22;67726;45.636;11.752;2023-05-14T14:23:56;23.00;72.40
78054;DHT22;67726;45.636;11.752;2023-05-14T14:26:21;22.90;62.80
78054;DHT22;67726;45.636;11.752;2023-05-14T14:28:47;22.50;67.00
78054;DHT22;67726;45.636;11.752;2023-05-14T14:31:15;22.40;70.80
78054;DHT22;67726;45.636;11.752;2023-05-14T14:33:41;22.50;76.70
78054;DHT22;67726;45.636;11.752;2023-05-14T14:36:07;22.40;65.20
78054;DHT22;67726;45.636;11.752;2023-05-14T14:38:33;22.40;73.20
78054;DHT22;67726;45.636;11.752;2023-05-14T14:40:59;22.40;72.10
78054;DHT22;67726;45.636;11.752;2023-05-14T14:43:27;22.50;75.20
78054;DHT22;67726;45.636;11.752;2023-05-14T14:45:53;22.50;73.80
78054;DHT22;67726;45.636;11.752;2023-05-14T14:48:28;22.50;73.10
78054;DHT22;67726;45.636;11.752;2023-05-14T14:51:05;22.60;75.70
78054;DHT22;67726;45.636;11.752;2023-05-14T14:53:32;22.50;75.80
78054;DHT22;67726;45.636;11.752;2023-05-14T14:55:59;22.30;75.80
78054;DHT22;67726;45.636;11.752;2023-05-14T14:58:25;22.30;74.80
78054;DHT22;67726;45.636;11.752;2023-05-14T15:00:53;22.10;62.80
78054;DHT22;67726;45.636;11.752;2023-05-14T15:03:19;21.90;73.50
78054;DHT22;67726;45.636;11.752;2023-05-14T15:05:45;21.60;75.60
78054;DHT22;67726;45.636;11.752;2023-05-14T15:08:11;21.40;76.40
78054;DHT22;67726;45.636;11.752;2023-05-14T15:10:37;21.20;74.40
78054;DHT22;67726;45.636;11.752;2023-05-14T15:13:04;21.00;76.80
78054;DHT22;67726;45.636;11.752;2023-05-14T15:15:31;20.40;72.70
78054;DHT22;67726;45.636;11.752;2023-05-14T15:17:56;20.30;78.90